^^
Grace C. Lehan Memorial Weather Station Historical Data
Daily Summary for September 18, 2022 Units:  Both    English   Metric
Daily Weekly Monthly Yearly
  High: Low: Average:
Temperature: 84 °F /  28.9 °C 59.1 °F /  15.1 °C 73 °F /  22.8 °C
Dew Point: 69.4 °F /  20.8 °C 56.2 °F /  13.4 °C 64.8 °F /  18.2 °C
Humidity: 96% 57.1% 77%
Wind Speed: 3mph /  4.8km/h - 0.3mph /  0.5km/h
Wind Gust: 15mph /  24.1km/h - -
Wind- - WSW
Pressure: 30.12 in /  1019.9 hPa 29.89 in /  1012.1 hPa -
Precipitation: 0.00 in /  0 mm    
 
 
Tabular Data for September 18, 2022
Time Temperature Dew Point Pressure Wind Wind Speed Wind Gust Humidity Rainfall Rate (Hourly) solar
00:04 59.3 °F /  15.2 °C 56.4 °F /  13.6 °C 30.11in /  1019.5hPa Calm     90% 0.00in /  0mm 0 W/m2
00:09 59.3 °F /  15.2 °C 56.4 °F /  13.6 °C 30.12in /  1019.9hPa Calm     90% 0.00in /  0mm 0 W/m2
00:14 59.3 °F /  15.2 °C 56.3 °F /  13.5 °C 30.11in /  1019.5hPa Calm     90% 0.00in /  0mm 0 W/m2
00:19 59.2 °F /  15.1 °C 56.3 °F /  13.5 °C 30.11in /  1019.5hPa Calm     90% 0.00in /  0mm 0 W/m2
00:24 59.2 °F /  15.1 °C 56.3 °F /  13.5 °C 30.11in /  1019.5hPa Calm     90% 0.00in /  0mm 0 W/m2
00:29 59.2 °F /  15.1 °C 56.2 °F /  13.4 °C 30.11in /  1019.5hPa Calm     90% 0.00in /  0mm 0 W/m2
00:34 59.2 °F /  15.1 °C 56.4 °F /  13.6 °C 30.11in /  1019.5hPa Calm     90.4% 0.00in /  0mm 0 W/m2
00:39 59.2 °F /  15.1 °C 56.6 °F /  13.7 °C 30.11in /  1019.5hPa Calm     91% 0.00in /  0mm 0 W/m2
00:43 59.3 °F /  15.2 °C 56.7 °F /  13.7 °C 30.11in /  1019.5hPa Calm     91% 0.00in /  0mm 0 W/m2
01:00 59.7 °F /  15.4 °C 57.4 °F /  14.1 °C 30.11in /  1019.5hPa Calm     92% 0.00in /  0mm 0 W/m2
01:30 59.8 °F /  15.4 °C 57.5 °F /  14.2 °C 30.10in /  1019.2hPa Calm     92% 0.00in /  0mm 0 W/m2
02:00 59.9 °F /  15.5 °C 57.9 °F /  14.4 °C 30.08in /  1018.5hPa Calm     93% 0.00in /  0mm 0 W/m2
02:30 59.9 °F /  15.5 °C 57.9 °F /  14.4 °C 30.08in /  1018.5hPa Calm     93% 0.00in /  0mm 0 W/m2
03:00 60.1 °F /  15.6 °C 58.4 °F /  14.7 °C 30.07in /  1018.2hPa Calm     94% 0.00in /  0mm 0 W/m2
03:30 60.1 °F /  15.6 °C 58.4 °F /  14.7 °C 30.06in /  1017.8hPa Calm     94% 0.00in /  0mm 0 W/m2
04:04 59.7 °F /  15.4 °C 58 °F /  14.4 °C 30.06in /  1017.8hPa Calm     94% 0.00in /  0mm 0 W/m2
04:09 59.7 °F /  15.4 °C 57.9 °F /  14.4 °C 30.06in /  1017.8hPa Calm     94% 0.00in /  0mm 0 W/m2
04:14 59.6 °F /  15.3 °C 57.9 °F /  14.4 °C 30.05in /  1017.5hPa Calm     94% 0.00in /  0mm 0 W/m2
04:19 59.5 °F /  15.3 °C 57.8 °F /  14.3 °C 30.05in /  1017.5hPa Calm     94% 0.00in /  0mm 0 W/m2
04:24 59.5 °F /  15.3 °C 57.8 °F /  14.3 °C 30.05in /  1017.5hPa Calm     94% 0.00in /  0mm 0 W/m2
04:29 59.6 °F /  15.3 °C 58 °F /  14.4 °C 30.05in /  1017.5hPa Calm     94.5% 0.00in /  0mm 0 W/m2
04:34 59.6 °F /  15.3 °C 58.1 °F /  14.5 °C 30.05in /  1017.5hPa Calm     94.9% 0.00in /  0mm 0 W/m2
04:39 59.6 °F /  15.3 °C 57.9 °F /  14.4 °C 30.04in /  1017.2hPa Calm     94% 0.00in /  0mm 0 W/m2
04:44 59.5 °F /  15.3 °C 57.8 °F /  14.3 °C 30.05in /  1017.5hPa Calm     94% 0.00in /  0mm 0 W/m2
04:49 59.5 °F /  15.3 °C 57.7 °F /  14.3 °C 30.04in /  1017.2hPa Calm     94% 0.00in /  0mm 0 W/m2
04:54 59.4 °F /  15.2 °C 57.7 °F /  14.3 °C 30.04in /  1017.2hPa Calm     94% 0.00in /  0mm 0 W/m2
04:59 59.3 °F /  15.2 °C 57.6 °F /  14.2 °C 30.04in /  1017.2hPa Calm     94% 0.00in /  0mm 0 W/m2
05:04 59.2 °F /  15.1 °C 57.5 °F /  14.2 °C 30.04in /  1017.2hPa Calm     94% 0.00in /  0mm 0 W/m2
05:09 59.1 °F /  15.1 °C 57.4 °F /  14.1 °C 30.04in /  1017.2hPa Calm     94% 0.00in /  0mm 0 W/m2
05:14 59.1 °F /  15.1 °C 57.4 °F /  14.1 °C 30.04in /  1017.2hPa Calm     94.2% 0.00in /  0mm 0 W/m2
05:19 59.1 °F /  15.1 °C 57.7 °F /  14.3 °C 30.04in /  1017.2hPa Calm     95% 0.00in /  0mm 0 W/m2
05:24 59.1 °F /  15.1 °C 57.7 °F /  14.3 °C 30.04in /  1017.2hPa Calm     95% 0.00in /  0mm 0 W/m2
05:29 59.3 °F /  15.2 °C 57.9 °F /  14.4 °C 30.04in /  1017.2hPa Calm     95% 0.00in /  0mm 0 W/m2
05:34 59.6 °F /  15.3 °C 58.2 °F /  14.6 °C 30.04in /  1017.2hPa Calm     95% 0.00in /  0mm 0 W/m2
05:39 60.1 °F /  15.6 °C 58.9 °F /  14.9 °C 30.04in /  1017.2hPa Calm     96% 0.00in /  0mm 0 W/m2
05:44 60.6 °F /  15.9 °C 59.5 °F /  15.3 °C 30.03in /  1016.8hPa Calm     96% 0.00in /  0mm 0 W/m2
05:49 61 °F /  16.1 °C 59.9 °F /  15.5 °C 30.03in /  1016.8hPa Calm     96% 0.00in /  0mm 0 W/m2
05:54 61.2 °F /  16.2 °C 60.1 °F /  15.6 °C 30.03in /  1016.8hPa Calm     96% 0.00in /  0mm 0 W/m2
05:59 61.4 °F /  16.3 °C 60.2 °F /  15.7 °C 30.03in /  1016.8hPa Calm     96% 0.00in /  0mm 0 W/m2
06:04 61.4 °F /  16.3 °C 60.2 °F /  15.7 °C 30.03in /  1016.8hPa Calm     95.6% 0.00in /  0mm 0 W/m2
06:09 61.5 °F /  16.4 °C 60.1 °F /  15.6 °C 30.03in /  1016.8hPa Calm     95% 0.00in /  0mm 0 W/m2
06:14 61.5 °F /  16.4 °C 60.1 °F /  15.6 °C 30.03in /  1016.8hPa Calm   1mph /  1.6km/h 95% 0.00in /  0mm 0 W/m2
06:19 61.6 °F /  16.4 °C 60.2 °F /  15.7 °C 30.03in /  1016.8hPa Calm   1mph /  1.6km/h 95% 0.00in /  0mm 0 W/m2
06:24 61.6 °F /  16.4 °C 60.1 °F /  15.6 °C 30.03in /  1016.8hPa Calm   1mph /  1.6km/h 95% 0.00in /  0mm 0 W/m2
06:29 61.5 °F /  16.4 °C 60.1 °F /  15.6 °C 30.03in /  1016.8hPa Calm   1mph /  1.6km/h 95% 0.00in /  0mm 0 W/m2
06:34 61.5 °F /  16.4 °C 60.1 °F /  15.6 °C 30.03in /  1016.8hPa Calm   1mph /  1.6km/h 95% 0.00in /  0mm 0 W/m2
06:39 61.4 °F /  16.3 °C 60 °F /  15.6 °C 30.03in /  1016.8hPa Calm     95% 0.00in /  0mm 5 W/m2
06:44 61.4 °F /  16.3 °C 60 °F /  15.6 °C 30.03in /  1016.8hPa Calm     95% 0.00in /  0mm 7 W/m2
06:49 61.4 °F /  16.3 °C 60 °F /  15.6 °C 30.03in /  1016.8hPa Calm     95% 0.00in /  0mm 12 W/m2
06:54 61.4 °F /  16.3 °C 60 °F /  15.6 °C 30.03in /  1016.8hPa Calm     95% 0.00in /  0mm 16 W/m2
06:59 61.4 °F /  16.3 °C 60 °F /  15.6 °C 30.03in /  1016.8hPa Calm     95% 0.00in /  0mm 19 W/m2
07:04 61.5 °F /  16.4 °C 60.1 °F /  15.6 °C 30.03in /  1016.8hPa Calm     95% 0.00in /  0mm 25 W/m2
07:09 61.6 °F /  16.4 °C 60.1 °F /  15.6 °C 30.03in /  1016.8hPa Calm     95% 0.00in /  0mm 28 W/m2
07:14 61.6 °F /  16.4 °C 60.4 °F /  15.8 °C 30.03in /  1016.8hPa Calm     95.8% 0.00in /  0mm 32 W/m2
07:19 61.7 °F /  16.5 °C 60.6 °F /  15.9 °C 30.03in /  1016.8hPa Calm     96% 0.00in /  0mm 44 W/m2
07:24 61.9 °F /  16.6 °C 60.7 °F /  15.9 °C 30.03in /  1016.8hPa Calm     96% 0.00in /  0mm 44 W/m2
07:29 62 °F /  16.7 °C 60.9 °F /  16.1 °C 30.04in /  1017.2hPa Calm     96% 0.00in /  0mm 44 W/m2
07:34 62.2 °F /  16.8 °C 61.1 °F /  16.2 °C 30.04in /  1017.2hPa Calm     96% 0.00in /  0mm 58 W/m2
07:39 62.4 °F /  16.9 °C 61.2 °F /  16.2 °C 30.03in /  1016.8hPa Calm     96% 0.00in /  0mm 58 W/m2
07:44 62.5 °F /  16.9 °C 61.4 °F /  16.3 °C 30.03in /  1016.8hPa Calm     96% 0.00in /  0mm 56 W/m2
07:49 62.7 °F /  17.1 °C 61.5 °F /  16.4 °C 30.03in /  1016.8hPa Calm     96% 0.00in /  0mm 62 W/m2
07:54 62.9 °F /  17.2 °C 61.7 °F /  16.5 °C 30.03in /  1016.8hPa Calm     96% 0.00in /  0mm 74 W/m2
07:59 63 °F /  17.2 °C 61.8 °F /  16.6 °C 30.03in /  1016.8hPa Calm     96% 0.00in /  0mm 74 W/m2
08:04 63.2 °F /  17.3 °C 62 °F /  16.7 °C 30.03in /  1016.8hPa Calm     96% 0.00in /  0mm 74 W/m2
08:09 63.3 °F /  17.4 °C 62.1 °F /  16.7 °C 30.03in /  1016.8hPa Calm     96% 0.00in /  0mm 81 W/m2
08:14 63.5 °F /  17.5 °C 62.2 °F /  16.8 °C 30.03in /  1016.8hPa Calm     95.3% 0.00in /  0mm 88 W/m2
08:19 63.7 °F /  17.6 °C 62.5 °F /  16.9 °C 30.03in /  1016.8hPa Calm     95.8% 0.00in /  0mm 95 W/m2
08:24 64 °F /  17.8 °C 62.6 °F /  17 °C 30.03in /  1016.8hPa Calm     95% 0.00in /  0mm 100 W/m2
08:29 64.4 °F /  18 °C 62.9 °F /  17.2 °C 30.03in /  1016.8hPa Calm     95% 0.00in /  0mm 104 W/m2
08:34 64.7 °F /  18.2 °C 63.2 °F /  17.3 °C 30.03in /  1016.8hPa Calm     95% 0.00in /  0mm 105 W/m2
08:39 65 °F /  18.3 °C 63.5 °F /  17.5 °C 30.03in /  1016.8hPa Calm     95% 0.00in /  0mm 109 W/m2
08:44 65.4 °F /  18.6 °C 63.9 °F /  17.7 °C 30.03in /  1016.8hPa Calm     95% 0.00in /  0mm 116 W/m2
08:49 65.8 °F /  18.8 °C 64.1 °F /  17.8 °C 30.03in /  1016.8hPa Calm     94.2% 0.00in /  0mm 125 W/m2
08:54 66.2 °F /  19 °C 64.3 °F /  17.9 °C 30.03in /  1016.8hPa SE 0.1mph /  0.2km/h 1mph /  1.6km/h 93.6% 0.00in /  0mm 271 W/m2
08:59 66.6 °F /  19.2 °C 64.4 °F /  18 °C 30.03in /  1016.8hPa SSW 1.1mph /  1.8km/h 12mph /  19.3km/h 92.4% 0.00in /  0mm 332 W/m2
09:04 67.3 °F /  19.6 °C 64.4 °F /  18 °C 30.03in /  1016.8hPa WSW 1.3mph /  2.1km/h 12mph /  19.3km/h 90.5% 0.00in /  0mm 343 W/m2
09:09 68.2 °F /  20.1 °C 64.6 °F /  18.1 °C 30.03in /  1016.8hPa SW 1.2mph /  1.9km/h 10mph /  16.1km/h 88.3% 0.00in /  0mm 343 W/m2
09:14 69.2 °F /  20.7 °C 64.9 °F /  18.3 °C 30.03in /  1016.8hPa WSW 0.1mph /  0.2km/h 10mph /  16.1km/h 86.1% 0.00in /  0mm 362 W/m2
09:19 70.1 °F /  21.2 °C 65 °F /  18.3 °C 30.03in /  1016.8hPa West 0.6mph /  1km/h 10mph /  16.1km/h 83.9% 0.00in /  0mm 403 W/m2
09:24 71 °F /  21.7 °C 65.4 °F /  18.6 °C 30.03in /  1016.8hPa West 0.4mph /  0.6km/h 10mph /  16.1km/h 82.4% 0.00in /  0mm 417 W/m2
09:29 72 °F /  22.2 °C 65.7 °F /  18.7 °C 30.03in /  1016.8hPa WSW 0.5mph /  0.8km/h 10mph /  16.1km/h 80.6% 0.00in /  0mm 434 W/m2
09:34 72.8 °F /  22.7 °C 65.7 °F /  18.7 °C 30.02in /  1016.5hPa WSW 1.1mph /  1.8km/h 11mph /  17.7km/h 78.5% 0.00in /  0mm 455 W/m2
09:39 73.5 °F /  23.1 °C 65.8 °F /  18.8 °C 30.02in /  1016.5hPa SW 0.4mph /  0.6km/h 11mph /  17.7km/h 76.8% 0.00in /  0mm 473 W/m2
09:44 74.3 °F /  23.5 °C 66.3 °F /  19.1 °C 30.02in /  1016.5hPa WSW 0.9mph /  1.4km/h 11mph /  17.7km/h 76.2% 0.00in /  0mm 490 W/m2
09:49 75 °F /  23.9 °C 66.3 °F /  19.1 °C 30.02in /  1016.5hPa SW 1.3mph /  2.1km/h 11mph /  17.7km/h 74.5% 0.00in /  0mm 501 W/m2
09:54 75.6 °F /  24.2 °C 66.1 °F /  18.9 °C 30.02in /  1016.5hPa WSW 1.2mph /  1.9km/h 11mph /  17.7km/h 72.4% 0.00in /  0mm 517 W/m2
09:59 75.9 °F /  24.4 °C 66 °F /  18.9 °C 30.02in /  1016.5hPa WSW 1.9mph /  3.1km/h 11mph /  17.7km/h 71.5% 0.00in /  0mm 522 W/m2
10:04 76.1 °F /  24.5 °C 66.3 °F /  19.1 °C 30.02in /  1016.5hPa WSW 3mph /  4.8km/h 12mph /  19.3km/h 71.6% 0.00in /  0mm 540 W/m2
10:09 76.4 °F /  24.7 °C 66.4 °F /  19.1 °C 30.02in /  1016.5hPa WSW 2.4mph /  3.9km/h 12mph /  19.3km/h 71.4% 0.00in /  0mm 552 W/m2
10:14 76.5 °F /  24.7 °C 66.2 °F /  19 °C 30.02in /  1016.5hPa WSW 1.5mph /  2.4km/h 12mph /  19.3km/h 70.5% 0.00in /  0mm 564 W/m2
10:19 76.4 °F /  24.7 °C 65.8 °F /  18.8 °C 30.01in /  1016.1hPa SW 2.2mph /  3.5km/h 15mph /  24.1km/h 69.6% 0.00in /  0mm 582 W/m2
10:24 76.6 °F /  24.8 °C 66.4 °F /  19.1 °C 30.01in /  1016.1hPa WSW 1mph /  1.6km/h 15mph /  24.1km/h 70.8% 0.00in /  0mm 591 W/m2
10:29 77 °F /  25 °C 66.9 °F /  19.4 °C 30.01in /  1016.1hPa West 0.3mph /  0.5km/h 15mph /  24.1km/h 71.1% 0.00in /  0mm 603 W/m2
10:34 77.5 °F /  25.3 °C 66.7 °F /  19.3 °C 30.00in /  1015.8hPa SW 0.8mph /  1.3km/h 15mph /  24.1km/h 69.4% 0.00in /  0mm 608 W/m2
10:39 77.9 °F /  25.5 °C 67 °F /  19.4 °C 30.00in /  1015.8hPa WSW 1mph /  1.6km/h 10mph /  16.1km/h 69.2% 0.00in /  0mm 603 W/m2
10:44 78.4 °F /  25.8 °C 67.5 °F /  19.7 °C 30.00in /  1015.8hPa West 0.3mph /  0.5km/h 10mph /  16.1km/h 69.1% 0.00in /  0mm 626 W/m2
10:49 78.8 °F /  26 °C 67.2 °F /  19.6 °C 30.00in /  1015.8hPa SW 0.2mph /  0.3km/h 10mph /  16.1km/h 67.5% 0.00in /  0mm 636 W/m2
10:54 79.3 °F /  26.3 °C 67.7 °F /  19.8 °C 30.00in /  1015.8hPa WSW 0.8mph /  1.3km/h 10mph /  16.1km/h 67.9% 0.00in /  0mm 652 W/m2
10:57 79.6 °F /  26.4 °C 67.3 °F /  19.6 °C 30.00in /  1015.8hPa Calm   10mph /  16.1km/h 66.1% 0.00in /  0mm 656 W/m2
11:00 80 °F /  26.7 °C 68.5 °F /  20.3 °C 30.00in /  1015.8hPa WSW 1mph /  1.6km/h 10mph /  16.1km/h 68% 0.00in /  0mm 626 W/m2
11:30 81.7 °F /  27.6 °C 67.4 °F /  19.7 °C 29.99in /  1015.5hPa WSW 1mph /  1.6km/h 11mph /  17.7km/h 62% 0.00in /  0mm 680 W/m2
12:04 80.8 °F /  27.1 °C 68.2 °F /  20.1 °C 29.99in /  1015.5hPa West 0.6mph /  1km/h 11mph /  17.7km/h 65.4% 0.00in /  0mm 680 W/m2
12:09 80.7 °F /  27.1 °C 68.2 °F /  20.1 °C 29.97in /  1014.8hPa West 0.1mph /  0.2km/h 3mph /  4.8km/h 65.9% 0.00in /  0mm 128 W/m2
12:14 80.6 °F /  27 °C 68.1 °F /  20.1 °C 29.98in /  1015.1hPa West 0.1mph /  0.2km/h 3mph /  4.8km/h 65.7% 0.00in /  0mm 130 W/m2
12:19 80.6 °F /  27 °C 68.4 °F /  20.2 °C 29.98in /  1015.1hPa Calm   3mph /  4.8km/h 66.4% 0.00in /  0mm 227 W/m2
12:24 80.5 °F /  26.9 °C 68.2 °F /  20.1 °C 29.97in /  1014.8hPa WSW 1.1mph /  1.8km/h 7mph /  11.3km/h 66.2% 0.00in /  0mm 257 W/m2
12:29 80.6 °F /  27 °C 68.4 °F /  20.2 °C 29.97in /  1014.8hPa WSW 0.1mph /  0.2km/h 7mph /  11.3km/h 66.3% 0.00in /  0mm 257 W/m2
12:34 80.8 °F /  27.1 °C 68.8 °F /  20.4 °C 29.97in /  1014.8hPa WSW 0.3mph /  0.5km/h 7mph /  11.3km/h 66.8% 0.00in /  0mm 355 W/m2
12:39 81 °F /  27.2 °C 68.8 °F /  20.4 °C 29.97in /  1014.8hPa WSW 0.3mph /  0.5km/h 5mph /  8km/h 66.6% 0.00in /  0mm 262 W/m2
12:44 81.2 °F /  27.3 °C 68.9 °F /  20.5 °C 29.97in /  1014.8hPa Calm   5mph /  8km/h 66.4% 0.00in /  0mm 151 W/m2
12:49 81.3 °F /  27.4 °C 69.1 °F /  20.6 °C 29.97in /  1014.8hPa WSW 0.2mph /  0.3km/h 5mph /  8km/h 66.6% 0.00in /  0mm 114 W/m2
12:54 81.5 °F /  27.5 °C 69 °F /  20.6 °C 29.97in /  1014.8hPa SW 0.1mph /  0.2km/h 5mph /  8km/h 65.9% 0.00in /  0mm 118 W/m2
12:59 81.5 °F /  27.5 °C 68.7 °F /  20.4 °C 29.96in /  1014.4hPa SW 0.4mph /  0.6km/h 5mph /  8km/h 65.2% 0.00in /  0mm 155 W/m2
13:04 81.6 °F /  27.6 °C 68.8 °F /  20.4 °C 29.96in /  1014.4hPa SW 0.7mph /  1.1km/h 5mph /  8km/h 65.3% 0.00in /  0mm 399 W/m2
13:09 81.7 °F /  27.6 °C 68.9 °F /  20.5 °C 29.96in /  1014.4hPa SW 0.7mph /  1.1km/h 6mph /  9.7km/h 65.3% 0.00in /  0mm 399 W/m2
13:14 81.7 °F /  27.6 °C 68.3 °F /  20.2 °C 29.96in /  1014.4hPa SW 1.3mph /  2.1km/h 8mph /  12.9km/h 63.9% 0.00in /  0mm 237 W/m2
13:19 81.8 °F /  27.7 °C 68.8 °F /  20.4 °C 29.96in /  1014.4hPa West 0.7mph /  1.1km/h 8mph /  12.9km/h 64.7% 0.00in /  0mm 237 W/m2
13:24 81.9 °F /  27.7 °C 69 °F /  20.6 °C 29.95in /  1014.1hPa WSW 0.6mph /  1km/h 8mph /  12.9km/h 64.9% 0.00in /  0mm 135 W/m2
13:29 82 °F /  27.8 °C 69.4 °F /  20.8 °C 29.95in /  1014.1hPa WSW 0.4mph /  0.6km/h 8mph /  12.9km/h 65.7% 0.00in /  0mm 114 W/m2
13:34 82.2 °F /  27.9 °C 69.2 °F /  20.7 °C 29.95in /  1014.1hPa SW 0.3mph /  0.5km/h 8mph /  12.9km/h 65% 0.00in /  0mm 181 W/m2
13:39 82.3 °F /  27.9 °C 69.1 °F /  20.6 °C 29.95in /  1014.1hPa WSW 0.2mph /  0.3km/h 4mph /  6.4km/h 64.5% 0.00in /  0mm 174 W/m2
13:44 82.4 °F /  28 °C 68.9 °F /  20.5 °C 29.95in /  1014.1hPa SW 1.7mph /  2.7km/h 7mph /  11.3km/h 63.7% 0.00in /  0mm 113 W/m2
13:49 82.4 °F /  28 °C 68.7 °F /  20.4 °C 29.95in /  1014.1hPa WSW 0.2mph /  0.3km/h 7mph /  11.3km/h 63.3% 0.00in /  0mm 107 W/m2
13:54 82.4 °F /  28 °C 69 °F /  20.6 °C 29.94in /  1013.8hPa WSW 0.2mph /  0.3km/h 7mph /  11.3km/h 63.8% 0.00in /  0mm 104 W/m2
13:59 82.5 °F /  28.1 °C 68.9 °F /  20.5 °C 29.94in /  1013.8hPa SW 0.6mph /  1km/h 7mph /  11.3km/h 63.5% 0.00in /  0mm 111 W/m2
14:04 82.5 °F /  28.1 °C 68.8 °F /  20.4 °C 29.94in /  1013.8hPa SW 0.7mph /  1.1km/h 7mph /  11.3km/h 63.4% 0.00in /  0mm 105 W/m2
14:09 82.5 °F /  28.1 °C 69 °F /  20.6 °C 29.94in /  1013.8hPa WSW 0.8mph /  1.3km/h 5mph /  8km/h 63.8% 0.00in /  0mm 102 W/m2
14:14 82.5 °F /  28.1 °C 68.7 °F /  20.4 °C 29.94in /  1013.8hPa WSW 0.7mph /  1.1km/h 7mph /  11.3km/h 63.1% 0.00in /  0mm 102 W/m2
14:19 82.5 °F /  28.1 °C 69 °F /  20.6 °C 29.93in /  1013.4hPa WSW 0.8mph /  1.3km/h 7mph /  11.3km/h 63.7% 0.00in /  0mm 113 W/m2
14:24 82.6 °F /  28.1 °C 69.4 °F /  20.8 °C 29.93in /  1013.4hPa WSW 0.1mph /  0.2km/h 7mph /  11.3km/h 64.5% 0.00in /  0mm 139 W/m2
14:29 82.7 °F /  28.2 °C 69.3 °F /  20.7 °C 29.93in /  1013.4hPa WSW 0.6mph /  1km/h 7mph /  11.3km/h 64% 0.00in /  0mm 116 W/m2
14:34 82.8 °F /  28.2 °C 69.1 °F /  20.6 °C 29.93in /  1013.4hPa Calm   7mph /  11.3km/h 63.3% 0.00in /  0mm 104 W/m2
14:39 83 °F /  28.3 °C 69.3 °F /  20.7 °C 29.93in /  1013.4hPa WSW 0.5mph /  0.8km/h 7mph /  11.3km/h 63.4% 0.00in /  0mm 130 W/m2
14:44 83.1 °F /  28.4 °C 69.1 °F /  20.6 °C 29.93in /  1013.4hPa WSW 0.9mph /  1.4km/h 7mph /  11.3km/h 62.8% 0.00in /  0mm 239 W/m2
14:49 83.2 °F /  28.4 °C 69.1 °F /  20.6 °C 29.92in /  1013.1hPa WSW 0.8mph /  1.3km/h 10mph /  16.1km/h 62.5% 0.00in /  0mm 466 W/m2
14:54 83.4 °F /  28.6 °C 68.1 °F /  20.1 °C 29.92in /  1013.1hPa WSW 1.9mph /  3.1km/h 10mph /  16.1km/h 60.1% 0.00in /  0mm 123 W/m2
14:59 83.4 °F /  28.6 °C 67.6 °F /  19.8 °C 29.92in /  1013.1hPa SW 1.8mph /  2.9km/h 10mph /  16.1km/h 59% 0.00in /  0mm 121 W/m2
15:04 83.4 °F /  28.6 °C 67.3 °F /  19.6 °C 29.92in /  1013.1hPa WSW 0.5mph /  0.8km/h 7mph /  11.3km/h 58.5% 0.00in /  0mm 165 W/m2
15:09 83.4 °F /  28.6 °C 67.9 °F /  19.9 °C 29.92in /  1013.1hPa West 0.1mph /  0.2km/h 7mph /  11.3km/h 59.8% 0.00in /  0mm 190 W/m2
15:14 83.5 °F /  28.6 °C 68 °F /  20 °C 29.92in /  1013.1hPa WSW 1.1mph /  1.8km/h 7mph /  11.3km/h 59.7% 0.00in /  0mm 394 W/m2
15:19 83.5 °F /  28.6 °C 67.6 °F /  19.8 °C 29.91in /  1012.8hPa SW 1.8mph /  2.9km/h 13mph /  20.9km/h 58.8% 0.00in /  0mm 575 W/m2
15:24 83.5 °F /  28.6 °C 67.4 °F /  19.7 °C 29.91in /  1012.8hPa WSW 0.6mph /  1km/h 13mph /  20.9km/h 58.5% 0.00in /  0mm 573 W/m2
15:29 83.6 °F /  28.7 °C 67.7 °F /  19.8 °C 29.91in /  1012.8hPa WSW 0.5mph /  0.8km/h 13mph /  20.9km/h 58.8% 0.00in /  0mm 429 W/m2
15:34 83.7 °F /  28.7 °C 67.4 °F /  19.7 °C 29.91in /  1012.8hPa WSW 1.6mph /  2.6km/h 13mph /  20.9km/h 58.1% 0.00in /  0mm 515 W/m2
15:39 83.9 °F /  28.8 °C 67.6 °F /  19.8 °C 29.91in /  1012.8hPa SW 0.4mph /  0.6km/h 11mph /  17.7km/h 58.1% 0.00in /  0mm 504 W/m2
15:44 83.9 °F /  28.8 °C 67.1 °F /  19.5 °C 29.91in /  1012.8hPa SW 0.7mph /  1.1km/h 11mph /  17.7km/h 57.1% 0.00in /  0mm 404 W/m2
15:49 84 °F /  28.9 °C 67.6 °F /  19.8 °C 29.91in /  1012.8hPa West 0.5mph /  0.8km/h 11mph /  17.7km/h 57.8% 0.00in /  0mm 464 W/m2
15:54 84 °F /  28.9 °C 67.5 °F /  19.7 °C 29.91in /  1012.8hPa WSW 0.2mph /  0.3km/h 11mph /  17.7km/h 57.8% 0.00in /  0mm 464 W/m2
15:59 83.9 °F /  28.8 °C 67.1 °F /  19.5 °C 29.91in /  1012.8hPa WSW 0.1mph /  0.2km/h 11mph /  17.7km/h 57.2% 0.00in /  0mm 90 W/m2
16:09 83.6 °F /  28.7 °C 67.6 °F /  19.8 °C 29.90in /  1012.4hPa Calm   1mph /  1.6km/h 58.7% 0.00in /  0mm 81 W/m2
16:14 83.5 °F /  28.6 °C 67.7 °F /  19.8 °C 29.90in /  1012.4hPa WSW 0.4mph /  0.6km/h 9mph /  14.5km/h 59% 0.00in /  0mm 77 W/m2
16:19 83.4 °F /  28.6 °C 67.4 °F /  19.7 °C 29.90in /  1012.4hPa SW 0.4mph /  0.6km/h 9mph /  14.5km/h 58.6% 0.00in /  0mm 76 W/m2
16:24 83.3 °F /  28.5 °C 67.1 °F /  19.5 °C 29.90in /  1012.4hPa Calm   9mph /  14.5km/h 58.2% 0.00in /  0mm 70 W/m2
16:29 83.3 °F /  28.5 °C 67.8 °F /  19.9 °C 29.90in /  1012.4hPa Calm   9mph /  14.5km/h 59.7% 0.00in /  0mm 70 W/m2
16:34 83.2 °F /  28.4 °C 67.6 °F /  19.8 °C 29.90in /  1012.4hPa WSW 0.5mph /  0.8km/h 9mph /  14.5km/h 59.3% 0.00in /  0mm 74 W/m2
16:39 83.2 °F /  28.4 °C 67.4 °F /  19.7 °C 29.90in /  1012.4hPa WSW 0.8mph /  1.3km/h 9mph /  14.5km/h 59% 0.00in /  0mm 77 W/m2
16:44 83.1 °F /  28.4 °C 67.3 °F /  19.6 °C 29.90in /  1012.4hPa SW 0.8mph /  1.3km/h 11mph /  17.7km/h 59% 0.00in /  0mm 76 W/m2
16:49 83.1 °F /  28.4 °C 67.3 °F /  19.6 °C 29.90in /  1012.4hPa WSW 0.7mph /  1.1km/h 11mph /  17.7km/h 59% 0.00in /  0mm 69 W/m2
16:54 83 °F /  28.3 °C 67.2 °F /  19.6 °C 29.90in /  1012.4hPa West 0.1mph /  0.2km/h 11mph /  17.7km/h 59% 0.00in /  0mm 62 W/m2
16:59 82.9 °F /  28.3 °C 67.5 °F /  19.7 °C 29.90in /  1012.4hPa WSW 0.2mph /  0.3km/h 11mph /  17.7km/h 59.8% 0.00in /  0mm 56 W/m2
17:04 82.8 °F /  28.2 °C 67.3 °F /  19.6 °C 29.90in /  1012.4hPa WSW 0.5mph /  0.8km/h 11mph /  17.7km/h 59.6% 0.00in /  0mm 54 W/m2
17:09 82.6 °F /  28.1 °C 67.1 °F /  19.5 °C 29.90in /  1012.4hPa WSW 0.2mph /  0.3km/h 6mph /  9.7km/h 59.5% 0.00in /  0mm 53 W/m2
17:14 82.4 °F /  28 °C 67.2 °F /  19.6 °C 29.89in /  1012.1hPa West 0.1mph /  0.2km/h 6mph /  9.7km/h 60.1% 0.00in /  0mm 53 W/m2
17:19 82.2 °F /  27.9 °C 67 °F /  19.4 °C 29.89in /  1012.1hPa SW 0.1mph /  0.2km/h 6mph /  9.7km/h 60.1% 0.00in /  0mm 49 W/m2
17:24 82.1 °F /  27.8 °C 67.3 °F /  19.6 °C 29.89in /  1012.1hPa West 0.3mph /  0.5km/h 6mph /  9.7km/h 61% 0.00in /  0mm 47 W/m2
17:29 82.1 °F /  27.8 °C 67.3 °F /  19.6 °C 29.89in /  1012.1hPa WSW 0.7mph /  1.1km/h 9mph /  14.5km/h 61% 0.00in /  0mm 44 W/m2
17:34 82 °F /  27.8 °C 67.2 °F /  19.6 °C 29.89in /  1012.1hPa Calm   9mph /  14.5km/h 61% 0.00in /  0mm 40 W/m2
17:39 81.8 °F /  27.7 °C 67.1 °F /  19.5 °C 29.89in /  1012.1hPa WSW 0.1mph /  0.2km/h 1mph /  1.6km/h 61% 0.00in /  0mm 37 W/m2
17:44 81.7 °F /  27.6 °C 67.1 °F /  19.5 °C 29.89in /  1012.1hPa WSW 0.4mph /  0.6km/h 6mph /  9.7km/h 61.4% 0.00in /  0mm 33 W/m2
17:49 81.5 °F /  27.5 °C 67.1 °F /  19.5 °C 29.89in /  1012.1hPa West 0.1mph /  0.2km/h 6mph /  9.7km/h 61.6% 0.00in /  0mm 32 W/m2
17:54 81.3 °F /  27.4 °C 67.1 °F /  19.5 °C 29.89in /  1012.1hPa Calm   6mph /  9.7km/h 62% 0.00in /  0mm 30 W/m2
17:59 81.1 °F /  27.3 °C 66.9 °F /  19.4 °C 29.89in /  1012.1hPa Calm   6mph /  9.7km/h 62% 0.00in /  0mm 30 W/m2
18:04 80.9 °F /  27.2 °C 66.7 °F /  19.3 °C 29.89in /  1012.1hPa Calm   6mph /  9.7km/h 62% 0.00in /  0mm 30 W/m2
18:09 80.7 °F /  27.1 °C 66.8 °F /  19.3 °C 29.89in /  1012.1hPa Calm     62.7% 0.00in /  0mm 28 W/m2
18:14 80.6 °F /  27 °C 66.8 °F /  19.3 °C 29.89in /  1012.1hPa Calm   2mph /  3.2km/h 63% 0.00in /  0mm 28 W/m2
18:19 80.4 °F /  26.9 °C 67.1 °F /  19.5 °C 29.89in /  1012.1hPa Calm   2mph /  3.2km/h 64% 0.00in /  0mm 26 W/m2
18:24 80.2 °F /  26.8 °C 66.9 °F /  19.4 °C 29.90in /  1012.4hPa Calm   2mph /  3.2km/h 64% 0.00in /  0mm 21 W/m2
18:29 79.9 °F /  26.6 °C 66.7 °F /  19.3 °C 29.90in /  1012.4hPa Calm   2mph /  3.2km/h 64% 0.00in /  0mm 16 W/m2
18:34 79.7 °F /  26.5 °C 66.5 °F /  19.2 °C 29.90in /  1012.4hPa Calm   2mph /  3.2km/h 64% 0.00in /  0mm 12 W/m2
18:39 79.5 °F /  26.4 °C 66.4 °F /  19.1 °C 29.90in /  1012.4hPa Calm     64.2% 0.00in /  0mm 9 W/m2
18:44 79.3 °F /  26.3 °C 66.6 °F /  19.2 °C 29.90in /  1012.4hPa Calm     65% 0.00in /  0mm 7 W/m2
18:49 79.1 °F /  26.2 °C 66.4 °F /  19.1 °C 29.90in /  1012.4hPa Calm     65% 0.00in /  0mm 0 W/m2
18:54 79 °F /  26.1 °C 66.5 °F /  19.2 °C 29.90in /  1012.4hPa Calm     65.7% 0.00in /  0mm 0 W/m2
18:59 78.7 °F /  25.9 °C 66.6 °F /  19.2 °C 29.90in /  1012.4hPa Calm     66.5% 0.00in /  0mm 0 W/m2
19:04 78.5 °F /  25.8 °C 66.7 °F /  19.3 °C 29.90in /  1012.4hPa Calm     67.1% 0.00in /  0mm 0 W/m2
19:09 78.3 °F /  25.7 °C 66.9 °F /  19.4 °C 29.89in /  1012.1hPa Calm     68% 0.00in /  0mm 0 W/m2
19:14 78.1 °F /  25.6 °C 66.6 °F /  19.2 °C 29.89in /  1012.1hPa Calm     68% 0.00in /  0mm 0 W/m2
19:19 77.9 °F /  25.5 °C 66.5 °F /  19.2 °C 29.89in /  1012.1hPa Calm     68% 0.00in /  0mm 0 W/m2
19:24 77.7 °F /  25.4 °C 66.7 °F /  19.3 °C 29.89in /  1012.1hPa Calm     69% 0.00in /  0mm 0 W/m2
19:29 77.5 °F /  25.3 °C 66.6 °F /  19.2 °C 29.89in /  1012.1hPa Calm   1mph /  1.6km/h 69% 0.00in /  0mm 0 W/m2
19:34 77.3 °F /  25.2 °C 66.7 °F /  19.3 °C 29.90in /  1012.4hPa Calm   1mph /  1.6km/h 69.8% 0.00in /  0mm 0 W/m2
19:39 77.1 °F /  25.1 °C 66.5 °F /  19.2 °C 29.90in /  1012.4hPa Calm     69.8% 0.00in /  0mm 0 W/m2
19:44 77 °F /  25 °C 66.5 °F /  19.2 °C 29.90in /  1012.4hPa Calm     70% 0.00in /  0mm 0 W/m2
19:49 77 °F /  25 °C 66.5 °F /  19.2 °C 29.90in /  1012.4hPa Calm     70% 0.00in /  0mm 0 W/m2
19:54 77 °F /  25 °C 66.5 °F /  19.2 °C 29.91in /  1012.8hPa Calm     70% 0.00in /  0mm 0 W/m2
19:58 76.9 °F /  24.9 °C 66.4 °F /  19.1 °C 29.91in /  1012.8hPa Calm     70% 0.00in /  0mm 0 W/m2
20:09 76.7 °F /  24.8 °C 66.5 °F /  19.2 °C 29.91in /  1012.8hPa Calm     70.7% 0.00in /  0mm 0 W/m2
20:14 76.6 °F /  24.8 °C 66.5 °F /  19.2 °C 29.91in /  1012.8hPa Calm     71% 0.00in /  0mm 0 W/m2
20:19 76.4 °F /  24.7 °C 66.6 °F /  19.2 °C 29.91in /  1012.8hPa Calm     71.7% 0.00in /  0mm 0 W/m2
20:24 76.3 °F /  24.6 °C 66.6 °F /  19.2 °C 29.91in /  1012.8hPa Calm     72% 0.00in /  0mm 0 W/m2
20:29 76.1 °F /  24.5 °C 66.8 °F /  19.3 °C 29.91in /  1012.8hPa Calm     72.9% 0.00in /  0mm 0 W/m2
20:34 76 °F /  24.4 °C 66.8 °F /  19.3 °C 29.91in /  1012.8hPa Calm     73% 0.00in /  0mm 0 W/m2
20:39 75.9 °F /  24.4 °C 66.6 °F /  19.2 °C 29.91in /  1012.8hPa Calm     73% 0.00in /  0mm 0 W/m2
20:44 75.8 °F /  24.3 °C 66.8 °F /  19.3 °C 29.91in /  1012.8hPa Calm     73.8% 0.00in /  0mm 0 W/m2
20:49 75.6 °F /  24.2 °C 66.7 °F /  19.3 °C 29.91in /  1012.8hPa Calm     74.1% 0.00in /  0mm 0 W/m2
20:54 75.4 °F /  24.1 °C 66.9 °F /  19.4 °C 29.91in /  1012.8hPa Calm     75% 0.00in /  0mm 0 W/m2
20:59 75.3 °F /  24.1 °C 66.9 °F /  19.4 °C 29.91in /  1012.8hPa Calm     75.3% 0.00in /  0mm 0 W/m2
21:04 75.1 °F /  23.9 °C 67 °F /  19.4 °C 29.91in /  1012.8hPa Calm     76% 0.00in /  0mm 0 W/m2
21:09 74.9 °F /  23.8 °C 66.8 °F /  19.3 °C 29.91in /  1012.8hPa Calm     76% 0.00in /  0mm 0 W/m2
21:14 74.8 °F /  23.8 °C 67 °F /  19.4 °C 29.91in /  1012.8hPa Calm     76.8% 0.00in /  0mm 0 W/m2
21:19 74.7 °F /  23.7 °C 67 °F /  19.4 °C 29.91in /  1012.8hPa Calm     77% 0.00in /  0mm 0 W/m2
21:24 74.5 °F /  23.6 °C 67.1 °F /  19.5 °C 29.91in /  1012.8hPa Calm     77.6% 0.00in /  0mm 0 W/m2
21:29 74.4 °F /  23.6 °C 67.1 °F /  19.5 °C 29.91in /  1012.8hPa Calm     78% 0.00in /  0mm 0 W/m2
21:34 74.3 °F /  23.5 °C 67 °F /  19.4 °C 29.91in /  1012.8hPa Calm     78% 0.00in /  0mm 0 W/m2
21:39 74.2 °F /  23.4 °C 66.9 °F /  19.4 °C 29.91in /  1012.8hPa Calm     78% 0.00in /  0mm 0 W/m2
21:44 74 °F /  23.3 °C 66.9 °F /  19.4 °C 29.91in /  1012.8hPa Calm     78.4% 0.00in /  0mm 0 W/m2
21:49 73.9 °F /  23.3 °C 67 °F /  19.4 °C 29.91in /  1012.8hPa Calm     79% 0.00in /  0mm 0 W/m2
21:54 73.8 °F /  23.2 °C 66.8 °F /  19.3 °C 29.91in /  1012.8hPa Calm     79% 0.00in /  0mm 0 W/m2
21:59 73.6 °F /  23.1 °C 67 °F /  19.4 °C 29.91in /  1012.8hPa Calm     79.7% 0.00in /  0mm 0 W/m2
22:04 73.5 °F /  23.1 °C 66.7 °F /  19.3 °C 29.91in /  1012.8hPa Calm     79.4% 0.00in /  0mm 0 W/m2
22:09 73.3 °F /  22.9 °C 66.5 °F /  19.2 °C 29.91in /  1012.8hPa Calm     79.1% 0.00in /  0mm 0 W/m2
22:14 73.2 °F /  22.9 °C 66.3 °F /  19.1 °C 29.91in /  1012.8hPa Calm     79% 0.00in /  0mm 0 W/m2
22:19 73 °F /  22.8 °C 66.2 °F /  19 °C 29.91in /  1012.8hPa Calm     79% 0.00in /  0mm 0 W/m2
22:24 72.9 °F /  22.7 °C 66 °F /  18.9 °C 29.91in /  1012.8hPa Calm     79% 0.00in /  0mm 0 W/m2
22:29 72.8 °F /  22.7 °C 66.2 °F /  19 °C 29.91in /  1012.8hPa Calm     79.8% 0.00in /  0mm 0 W/m2
22:34 72.7 °F /  22.6 °C 66 °F /  18.9 °C 29.90in /  1012.4hPa Calm     79.5% 0.00in /  0mm 0 W/m2
22:39 72.6 °F /  22.6 °C 66.1 °F /  18.9 °C 29.91in /  1012.8hPa Calm     80% 0.00in /  0mm 0 W/m2
22:44 72.5 °F /  22.5 °C 66 °F /  18.9 °C 29.91in /  1012.8hPa Calm     80% 0.00in /  0mm 0 W/m2
22:49 72.4 °F /  22.4 °C 65.9 °F /  18.8 °C 29.91in /  1012.8hPa Calm     80% 0.00in /  0mm 0 W/m2
22:54 72.4 °F /  22.4 °C 65.9 °F /  18.8 °C 29.90in /  1012.4hPa Calm     80% 0.00in /  0mm 0 W/m2
22:59 72.3 °F /  22.4 °C 65.8 °F /  18.8 °C 29.91in /  1012.8hPa Calm     80% 0.00in /  0mm 0 W/m2
23:04 72.2 °F /  22.3 °C 65.9 °F /  18.8 °C 29.91in /  1012.8hPa Calm     80.6% 0.00in /  0mm 0 W/m2
23:09 72.2 °F /  22.3 °C 66 °F /  18.9 °C 29.91in /  1012.8hPa Calm     81% 0.00in /  0mm 0 W/m2
23:14 72.1 °F /  22.3 °C 66 °F /  18.9 °C 29.91in /  1012.8hPa Calm     81% 0.00in /  0mm 0 W/m2
23:19 72.1 °F /  22.3 °C 65.9 °F /  18.8 °C 29.91in /  1012.8hPa Calm     81% 0.00in /  0mm 0 W/m2
23:24 72 °F /  22.2 °C 65.9 °F /  18.8 °C 29.91in /  1012.8hPa Calm     81% 0.00in /  0mm 0 W/m2
23:29 71.9 °F /  22.2 °C 65.8 °F /  18.8 °C 29.90in /  1012.4hPa Calm   1mph /  1.6km/h 81% 0.00in /  0mm 0 W/m2
23:34 71.8 °F /  22.1 °C 65.7 °F /  18.7 °C 29.90in /  1012.4hPa Calm   1mph /  1.6km/h 81% 0.00in /  0mm 0 W/m2
23:39 71.7 °F /  22.1 °C 65.8 °F /  18.8 °C 29.90in /  1012.4hPa Calm     81.5% 0.00in /  0mm 0 W/m2
23:44 71.6 °F /  22 °C 65.8 °F /  18.8 °C 29.90in /  1012.4hPa Calm   1mph /  1.6km/h 82% 0.00in /  0mm 0 W/m2
23:49 71.5 °F /  21.9 °C 65.7 °F /  18.7 °C 29.90in /  1012.4hPa Calm   1mph /  1.6km/h 82% 0.00in /  0mm 0 W/m2
23:54 71.4 °F /  21.9 °C 65.6 °F /  18.7 °C 29.89in /  1012.1hPa Calm   1mph /  1.6km/h 82% 0.00in /  0mm 0 W/m2
23:59 71.2 °F /  21.8 °C 65.5 °F /  18.6 °C 29.89in /  1012.1hPa Calm   1mph /  1.6km/h 82.2% 0.00in /  0mm 0 W/m2
Hartford County Weather
Compliments of Weather Underground - 2 mb